sensor_id;sensor_type;location;lat;lon;timestamp;pressure;altitude;pressure_sealevel;temperature;humidity
73862;BME280;63459;51.456;-0.916;2023-05-07T02:36:07;100876.17;;;27.51;24.06
73862;BME280;63459;51.456;-0.916;2023-05-07T02:38:23;100876.45;;;27.57;24.01
73862;BME280;63459;51.456;-0.916;2023-05-07T02:40:49;100881.08;;;27.82;24.01
73862;BME280;63459;51.456;-0.916;2023-05-07T02:43:14;100882.50;;;28.06;23.99
73862;BME280;63459;51.456;-0.916;2023-05-07T02:48:05;100884.57;;;27.80;24.01
73862;BME280;63459;51.456;-0.916;2023-05-07T02:50:29;100882.89;;;28.25;24.00
73862;BME280;63459;51.456;-0.916;2023-05-07T02:53:06;100884.75;;;28.02;24.02
73862;BME280;63459;51.456;-0.916;2023-05-07T02:55:20;100886.97;;;28.08;23.98
73862;BME280;63459;51.456;-0.916;2023-05-07T02:57:46;100888.68;;;27.86;23.98
73862;BME280;63459;51.456;-0.916;2023-05-07T03:00:13;100889.14;;;27.84;24.01
73862;BME280;63459;51.456;-0.916;2023-05-07T03:02:37;100894.10;;;27.87;23.98
73862;BME280;63459;51.456;-0.916;2023-05-07T03:05:03;100898.36;;;27.64;24.02
73862;BME280;63459;51.456;-0.916;2023-05-07T03:07:27;100904.46;;;27.89;23.98
73862;BME280;63459;51.456;-0.916;2023-05-07T03:09:53;100904.41;;;27.87;24.01
73862;BME280;63459;51.456;-0.916;2023-05-07T03:12:18;100903.05;;;27.90;24.00
73862;BME280;63459;51.456;-0.916;2023-05-07T03:14:43;100906.90;;;27.89;24.01
73862;BME280;63459;51.456;-0.916;2023-05-07T03:17:08;100903.52;;;28.11;24.01
73862;BME280;63459;51.456;-0.916;2023-05-07T03:21:59;100909.04;;;28.03;24.07
73862;BME280;63459;51.456;-0.916;2023-05-07T03:24:25;100910.32;;;27.62;24.05
73862;BME280;63459;51.456;-0.916;2023-05-07T03:26:50;100908.07;;;28.54;24.02
73862;BME280;63459;51.456;-0.916;2023-05-07T03:29:25;100911.78;;;28.31;24.03
73862;BME280;63459;51.456;-0.916;2023-05-07T03:31:40;100910.36;;;28.07;24.06
73862;BME280;63459;51.456;-0.916;2023-05-07T03:34:05;100907.01;;;28.03;24.08
73862;BME280;63459;51.456;-0.916;2023-05-07T03:38:57;100917.22;;;27.78;24.04
73862;BME280;63459;51.456;-0.916;2023-05-07T03:41:22;100916.64;;;27.70;24.06
73862;BME280;63459;51.456;-0.916;2023-05-07T03:43:48;100915.90;;;27.66;24.08
73862;BME280;63459;51.456;-0.916;2023-05-07T03:46:13;100920.49;;;27.91;24.05
73862;BME280;63459;51.456;-0.916;2023-05-07T03:48:38;100920.66;;;28.05;24.11
73862;BME280;63459;51.456;-0.916;2023-05-07T03:51:04;100924.03;;;28.24;24.15
73862;BME280;63459;51.456;-0.916;2023-05-07T03:53:29;100926.24;;;27.78;24.16
73862;BME280;63459;51.456;-0.916;2023-05-07T03:58:20;100927.71;;;28.04;24.13
73862;BME280;63459;51.456;-0.916;2023-05-07T04:00:45;100930.19;;;27.58;24.13
73862;BME280;63459;51.456;-0.916;2023-05-07T04:03:15;100933.94;;;27.42;24.06
73862;BME280;63459;51.456;-0.916;2023-05-07T04:05:35;100934.97;;;28.22;24.07
73862;BME280;63459;51.456;-0.916;2023-05-07T04:08:02;100937.01;;;27.29;24.11
73862;BME280;63459;51.456;-0.916;2023-05-07T04:10:28;100933.32;;;27.92;24.11
73862;BME280;63459;51.456;-0.916;2023-05-07T04:12:52;100936.62;;;28.12;24.12
73862;BME280;63459;51.456;-0.916;2023-05-07T04:15:17;100942.74;;;27.62;24.14
73862;BME280;63459;51.456;-0.916;2023-05-07T04:17:43;100946.01;;;27.36;24.16
73862;BME280;63459;51.456;-0.916;2023-05-07T04:22:33;100951.86;;;27.55;24.15
73862;BME280;63459;51.456;-0.916;2023-05-07T04:24:59;100951.27;;;27.93;24.18
73862;BME280;63459;51.456;-0.916;2023-05-07T04:27:25;100956.19;;;27.95;24.18
73862;BME280;63459;51.456;-0.916;2023-05-07T04:29:50;100956.52;;;27.68;24.21
73862;BME280;63459;51.456;-0.916;2023-05-07T04:32:15;100957.44;;;28.07;24.27
73862;BME280;63459;51.456;-0.916;2023-05-07T04:34:40;100959.99;;;27.19;24.28
73862;BME280;63459;51.456;-0.916;2023-05-07T04:39:32;100968.44;;;27.48;24.24
73862;BME280;63459;51.456;-0.916;2023-05-07T04:41:57;100973.92;;;27.92;24.23
73862;BME280;63459;51.456;-0.916;2023-05-07T04:44:22;100978.38;;;27.94;24.21
73862;BME280;63459;51.456;-0.916;2023-05-07T04:46:47;100980.68;;;27.67;24.24
73862;BME280;63459;51.456;-0.916;2023-05-07T04:49:13;100979.92;;;27.93;24.20
73862;BME280;63459;51.456;-0.916;2023-05-07T04:51:39;100976.68;;;27.27;24.19
73862;BME280;63459;51.456;-0.916;2023-05-07T04:56:34;100981.76;;;27.97;24.17
73862;BME280;63459;51.456;-0.916;2023-05-07T04:58:54;100982.25;;;27.58;24.15
73862;BME280;63459;51.456;-0.916;2023-05-07T05:03:46;100980.02;;;27.83;24.14
73862;BME280;63459;51.456;-0.916;2023-05-07T05:06:11;100976.51;;;27.71;24.07
73862;BME280;63459;51.456;-0.916;2023-05-07T05:08:41;100973.38;;;27.73;24.06
73862;BME280;63459;51.456;-0.916;2023-05-07T05:11:02;100975.94;;;27.59;24.01
73862;BME280;63459;51.456;-0.916;2023-05-07T05:13:27;100975.95;;;27.89;23.92
73862;BME280;63459;51.456;-0.916;2023-05-07T05:15:53;100977.17;;;27.93;23.90
73862;BME280;63459;51.456;-0.916;2023-05-07T05:18:19;100982.57;;;27.89;23.95
73862;BME280;63459;51.456;-0.916;2023-05-07T05:23:08;100988.55;;;28.18;23.91
73862;BME280;63459;51.456;-0.916;2023-05-07T05:25:34;100998.42;;;27.23;23.81
73862;BME280;63459;51.456;-0.916;2023-05-07T05:28:00;100994.67;;;27.83;23.66
73862;BME280;63459;51.456;-0.916;2023-05-07T05:30:24;100999.68;;;28.00;23.70
73862;BME280;63459;51.456;-0.916;2023-05-07T05:35:17;101003.48;;;28.41;23.75
73862;BME280;63459;51.456;-0.916;2023-05-07T05:37:40;101002.04;;;27.99;23.77
73862;BME280;63459;51.456;-0.916;2023-05-07T05:40:06;100996.89;;;28.05;23.73
73862;BME280;63459;51.456;-0.916;2023-05-07T05:42:30;101000.62;;;28.12;23.71
73862;BME280;63459;51.456;-0.916;2023-05-07T05:44:55;101005.97;;;28.40;23.67
73862;BME280;63459;51.456;-0.916;2023-05-07T05:47:22;101013.82;;;28.40;23.70
73862;BME280;63459;51.456;-0.916;2023-05-07T05:49:46;101013.70;;;28.41;23.70
73862;BME280;63459;51.456;-0.916;2023-05-07T05:52:13;101011.59;;;28.21;23.71
73862;BME280;63459;51.456;-0.916;2023-05-07T05:54:37;101015.75;;;28.43;23.72
73862;BME280;63459;51.456;-0.916;2023-05-07T05:57:05;101024.76;;;28.25;23.70
73862;BME280;63459;51.456;-0.916;2023-05-07T05:59:29;101029.38;;;28.70;23.69
73862;BME280;63459;51.456;-0.916;2023-05-07T06:01:54;101033.70;;;28.36;23.64
73862;BME280;63459;51.456;-0.916;2023-05-07T06:04:19;101040.06;;;28.79;23.66
73862;BME280;63459;51.456;-0.916;2023-05-07T06:06:45;101036.10;;;28.13;23.68
73862;BME280;63459;51.456;-0.916;2023-05-07T06:09:14;101036.50;;;28.19;23.65
73862;BME280;63459;51.456;-0.916;2023-05-07T06:11:35;101039.92;;;28.69;23.62
73862;BME280;63459;51.456;-0.916;2023-05-07T06:14:00;101043.51;;;28.46;23.63
73862;BME280;63459;51.456;-0.916;2023-05-07T06:16:26;101042.77;;;28.49;23.64
73862;BME280;63459;51.456;-0.916;2023-05-07T06:19:07;101044.48;;;28.29;23.65
73862;BME280;63459;51.456;-0.916;2023-05-07T06:21:18;101043.37;;;28.36;23.60
73862;BME280;63459;51.456;-0.916;2023-05-07T06:23:42;101042.18;;;28.42;23.56
73862;BME280;63459;51.456;-0.916;2023-05-07T06:28:38;101042.65;;;28.69;23.55
73862;BME280;63459;51.456;-0.916;2023-05-07T06:33:24;101047.99;;;28.18;23.44
73862;BME280;63459;51.456;-0.916;2023-05-07T06:35:54;101047.98;;;28.59;23.46
73862;BME280;63459;51.456;-0.916;2023-05-07T06:38:15;101051.23;;;28.66;23.43
73862;BME280;63459;51.456;-0.916;2023-05-07T06:40:48;101053.65;;;28.72;23.42
73862;BME280;63459;51.456;-0.916;2023-05-07T06:45:30;101047.42;;;28.64;23.34
73862;BME280;63459;51.456;-0.916;2023-05-07T06:47:55;101043.71;;;29.16;23.31
73862;BME280;63459;51.456;-0.916;2023-05-07T06:50:21;101043.57;;;29.40;23.35
73862;BME280;63459;51.456;-0.916;2023-05-07T06:55:17;101050.75;;;29.07;23.31
73862;BME280;63459;51.456;-0.916;2023-05-07T07:00:03;101053.33;;;29.01;23.24
73862;BME280;63459;51.456;-0.916;2023-05-07T07:02:33;101059.16;;;29.04;23.23
73862;BME280;63459;51.456;-0.916;2023-05-07T07:04:53;101064.09;;;29.37;23.15
73862;BME280;63459;51.456;-0.916;2023-05-07T07:07:18;101066.49;;;29.17;23.12
73862;BME280;63459;51.456;-0.916;2023-05-07T07:09:43;101069.10;;;29.38;23.14
73862;BME280;63459;51.456;-0.916;2023-05-07T07:12:08;101067.59;;;29.62;23.13
73862;BME280;63459;51.456;-0.916;2023-05-07T07:14:35;101062.70;;;29.43;23.14
73862;BME280;63459;51.456;-0.916;2023-05-07T07:17:04;101067.50;;;29.45;23.11
73862;BME280;63459;51.456;-0.916;2023-05-07T07:19:25;101065.66;;;29.11;23.05
73862;BME280;63459;51.456;-0.916;2023-05-07T07:21:49;101073.63;;;29.33;23.07
73862;BME280;63459;51.456;-0.916;2023-05-07T07:26:40;101075.08;;;29.26;23.00
73862;BME280;63459;51.456;-0.916;2023-05-07T07:29:06;101078.91;;;29.93;23.02
73862;BME280;63459;51.456;-0.916;2023-05-07T07:31:32;101080.30;;;29.78;22.96
73862;BME280;63459;51.456;-0.916;2023-05-07T07:33:57;101079.74;;;29.18;22.92
73862;BME280;63459;51.456;-0.916;2023-05-07T07:36:21;101085.49;;;29.44;22.90
73862;BME280;63459;51.456;-0.916;2023-05-07T07:38:47;101085.94;;;29.47;22.87
73862;BME280;63459;51.456;-0.916;2023-05-07T07:41:13;101086.83;;;29.46;22.90
73862;BME280;63459;51.456;-0.916;2023-05-07T07:46:03;101090.59;;;29.79;22.81
73862;BME280;63459;51.456;-0.916;2023-05-07T07:48:33;101092.48;;;29.81;22.79
73862;BME280;63459;51.456;-0.916;2023-05-07T07:53:21;101094.24;;;29.68;22.73
73862;BME280;63459;51.456;-0.916;2023-05-07T07:58:15;101101.62;;;29.69;22.71
73862;BME280;63459;51.456;-0.916;2023-05-07T08:00:36;101100.01;;;29.92;22.71
73862;BME280;63459;51.456;-0.916;2023-05-07T08:03:01;101104.03;;;29.31;22.68
73862;BME280;63459;51.456;-0.916;2023-05-07T08:05:27;101107.02;;;30.27;22.60
73862;BME280;63459;51.456;-0.916;2023-05-07T08:07:53;101112.34;;;29.83;22.60
73862;BME280;63459;51.456;-0.916;2023-05-07T08:10:17;101116.02;;;29.62;22.58
73862;BME280;63459;51.456;-0.916;2023-05-07T08:12:42;101118.94;;;29.33;22.60
73862;BME280;63459;51.456;-0.916;2023-05-07T08:15:08;101122.57;;;29.34;22.55
73862;BME280;63459;51.456;-0.916;2023-05-07T08:17:32;101125.76;;;29.97;22.53
73862;BME280;63459;51.456;-0.916;2023-05-07T08:19:57;101124.24;;;29.97;22.50
73862;BME280;63459;51.456;-0.916;2023-05-07T08:22:23;101124.42;;;29.09;22.46
73862;BME280;63459;51.456;-0.916;2023-05-07T08:24:48;101119.93;;;29.49;22.49
73862;BME280;63459;51.456;-0.916;2023-05-07T08:27:15;101123.89;;;29.70;22.47
73862;BME280;63459;51.456;-0.916;2023-05-07T08:29:39;101124.98;;;29.90;22.50
73862;BME280;63459;51.456;-0.916;2023-05-07T08:32:04;101130.22;;;29.72;22.47
73862;BME280;63459;51.456;-0.916;2023-05-07T08:34:30;101136.25;;;30.17;22.44
73862;BME280;63459;51.456;-0.916;2023-05-07T08:36:55;101139.55;;;29.59;22.37
73862;BME280;63459;51.456;-0.916;2023-05-07T08:41:45;101133.09;;;29.66;22.33
73862;BME280;63459;51.456;-0.916;2023-05-07T08:44:12;101139.58;;;30.15;22.31
73862;BME280;63459;51.456;-0.916;2023-05-07T08:46:36;101139.63;;;29.93;22.30
73862;BME280;63459;51.456;-0.916;2023-05-07T08:49:01;101146.10;;;29.71;22.28
73862;BME280;63459;51.456;-0.916;2023-05-07T08:51:26;101147.36;;;29.98;22.23
73862;BME280;63459;51.456;-0.916;2023-05-07T08:53:52;101153.02;;;30.45;22.18
73862;BME280;63459;51.456;-0.916;2023-05-07T08:56:17;101154.58;;;30.21;22.19
73862;BME280;63459;51.456;-0.916;2023-05-07T08:58:42;101161.63;;;29.99;22.16
73862;BME280;63459;51.456;-0.916;2023-05-07T09:01:10;101162.06;;;29.96;22.15
73862;BME280;63459;51.456;-0.916;2023-05-07T09:03:33;101169.85;;;29.60;22.06
73862;BME280;63459;51.456;-0.916;2023-05-07T09:05:58;101171.36;;;29.82;22.07
73862;BME280;63459;51.456;-0.916;2023-05-07T09:08:25;101172.08;;;29.98;22.17
73862;BME280;63459;51.456;-0.916;2023-05-07T09:10:49;101174.18;;;29.76;22.16
73862;BME280;63459;51.456;-0.916;2023-05-07T09:13:14;101166.60;;;29.96;22.17
73862;BME280;63459;51.456;-0.916;2023-05-07T09:15:39;101167.48;;;29.76;22.16
73862;BME280;63459;51.456;-0.916;2023-05-07T09:18:04;101171.90;;;29.77;22.16
73862;BME280;63459;51.456;-0.916;2023-05-07T09:22:56;101169.10;;;30.07;22.15
73862;BME280;63459;51.456;-0.916;2023-05-07T09:25:30;101170.64;;;30.28;22.14
73862;BME280;63459;51.456;-0.916;2023-05-07T09:27:46;101178.08;;;30.06;22.10
73862;BME280;63459;51.456;-0.916;2023-05-07T09:30:13;101178.33;;;29.89;22.07
73862;BME280;63459;51.456;-0.916;2023-05-07T09:32:37;101174.28;;;29.78;22.02
73862;BME280;63459;51.456;-0.916;2023-05-07T09:35:02;101173.28;;;30.12;21.84
73862;BME280;63459;51.456;-0.916;2023-05-07T09:37:28;101171.50;;;30.72;21.77
73862;BME280;63459;51.456;-0.916;2023-05-07T09:39:54;101170.46;;;30.20;21.69
73862;BME280;63459;51.456;-0.916;2023-05-07T09:42:25;101174.26;;;30.71;21.61
73862;BME280;63459;51.456;-0.916;2023-05-07T09:44:50;101178.27;;;30.39;21.48
73862;BME280;63459;51.456;-0.916;2023-05-07T09:47:16;101177.90;;;30.69;21.34
73862;BME280;63459;51.456;-0.916;2023-05-07T09:49:36;101184.98;;;30.50;21.34
73862;BME280;63459;51.456;-0.916;2023-05-07T09:52:04;101188.69;;;30.60;21.29
73862;BME280;63459;51.456;-0.916;2023-05-07T09:56:50;101196.09;;;30.67;21.16
73862;BME280;63459;51.456;-0.916;2023-05-07T09:59:17;101200.49;;;31.03;21.19
73862;BME280;63459;51.456;-0.916;2023-05-07T10:01:47;101199.78;;;30.52;21.25
73862;BME280;63459;51.456;-0.916;2023-05-07T10:04:11;101200.27;;;30.47;21.22
73862;BME280;63459;51.456;-0.916;2023-05-07T10:06:32;101204.95;;;30.94;21.22
73862;BME280;63459;51.456;-0.916;2023-05-07T10:08:59;101211.84;;;30.50;21.16
73862;BME280;63459;51.456;-0.916;2023-05-07T10:11:27;101213.64;;;30.45;21.15
73862;BME280;63459;51.456;-0.916;2023-05-07T10:13:48;101209.70;;;30.41;21.09
73862;BME280;63459;51.456;-0.916;2023-05-07T10:16:21;101209.88;;;30.77;21.12
73862;BME280;63459;51.456;-0.916;2023-05-07T10:18:40;101217.73;;;30.47;21.14
73862;BME280;63459;51.456;-0.916;2023-05-07T10:21:08;101217.90;;;30.19;21.22
73862;BME280;63459;51.456;-0.916;2023-05-07T10:23:31;101219.70;;;30.38;21.29
73862;BME280;63459;51.456;-0.916;2023-05-07T10:25:57;101222.00;;;30.36;21.33
73862;BME280;63459;51.456;-0.916;2023-05-07T10:28:22;101227.76;;;30.37;21.30
73862;BME280;63459;51.456;-0.916;2023-05-07T10:31:18;101233.67;;;30.50;21.24
73862;BME280;63459;51.456;-0.916;2023-05-07T10:33:18;101238.40;;;30.29;21.26
73862;BME280;63459;51.456;-0.916;2023-05-07T10:35:39;101240.77;;;30.25;21.22
73862;BME280;63459;51.456;-0.916;2023-05-07T10:38:06;101244.43;;;30.46;21.16
73862;BME280;63459;51.456;-0.916;2023-05-07T10:40:25;101242.70;;;30.45;21.09
73862;BME280;63459;51.456;-0.916;2023-05-07T10:45:17;101248.37;;;30.45;21.09
73862;BME280;63459;51.456;-0.916;2023-05-07T10:52:38;101259.30;;;30.88;21.05
73862;BME280;63459;51.456;-0.916;2023-05-07T11:02:16;101265.44;;;31.43;20.87
73862;BME280;63459;51.456;-0.916;2023-05-07T11:04:41;101266.35;;;31.01;20.81
73862;BME280;63459;51.456;-0.916;2023-05-07T11:11:58;101279.31;;;31.48;20.45
73862;BME280;63459;51.456;-0.916;2023-05-07T11:16:46;101273.42;;;31.62;20.19
73862;BME280;63459;51.456;-0.916;2023-05-07T11:19:16;101265.22;;;31.68;19.95
73862;BME280;63459;51.456;-0.916;2023-05-07T11:21:38;101269.22;;;31.65;19.70
73862;BME280;63459;51.456;-0.916;2023-05-07T11:24:02;101264.67;;;32.07;19.66
73862;BME280;63459;51.456;-0.916;2023-05-07T11:26:28;101268.32;;;31.87;19.56
73862;BME280;63459;51.456;-0.916;2023-05-07T11:28:52;101262.62;;;32.89;19.53
73862;BME280;63459;51.456;-0.916;2023-05-07T11:31:22;101259.42;;;32.22;19.49
73862;BME280;63459;51.456;-0.916;2023-05-07T11:33:43;101254.83;;;32.46;19.37
73862;BME280;63459;51.456;-0.916;2023-05-07T11:36:08;101258.86;;;32.39;19.28
73862;BME280;63459;51.456;-0.916;2023-05-07T11:38:36;101257.78;;;33.11;19.30
73862;BME280;63459;51.456;-0.916;2023-05-07T11:40:59;101258.71;;;32.94;19.40
73862;BME280;63459;51.456;-0.916;2023-05-07T11:43:24;101259.30;;;32.93;19.48
73862;BME280;63459;51.456;-0.916;2023-05-07T11:45:48;101262.66;;;33.12;19.52
73862;BME280;63459;51.456;-0.916;2023-05-07T11:48:19;101262.23;;;32.66;19.53
73862;BME280;63459;51.456;-0.916;2023-05-07T11:53:10;101265.37;;;32.62;19.46
73862;BME280;63459;51.456;-0.916;2023-05-07T11:55:29;101267.03;;;32.32;19.37
73862;BME280;63459;51.456;-0.916;2023-05-07T11:57:54;101269.64;;;32.06;19.36
